createdAt,value
2022-11-02T00:00:42.192Z,13.34
2022-11-02T00:01:44.787Z,13.37
2022-11-02T00:02:46.763Z,13.39
2022-11-02T00:03:48.946Z,13.40
2022-11-02T00:04:50.755Z,13.41
2022-11-02T00:05:52.567Z,13.41
2022-11-02T00:06:54.419Z,13.40
2022-11-02T00:07:56.234Z,13.37
2022-11-02T00:08:58.029Z,13.33
2022-11-02T00:09:59.845Z,13.33
2022-11-02T00:11:01.914Z,13.32
2022-11-02T00:12:03.799Z,13.33
2022-11-02T00:13:06.065Z,13.36
2022-11-02T00:14:08.370Z,13.38
2022-11-02T00:15:10.458Z,13.38
2022-11-02T00:16:14.926Z,13.38
2022-11-02T00:17:16.813Z,13.39
2022-11-02T00:18:18.772Z,13.39
2022-11-02T00:19:20.558Z,13.40
2022-11-02T00:20:22.390Z,13.40
2022-11-02T00:21:25.593Z,13.40
2022-11-02T00:22:27.493Z,13.37
2022-11-02T00:23:29.922Z,13.36
2022-11-02T00:24:33.987Z,13.36
2022-11-02T00:25:38.173Z,13.37
2022-11-02T00:26:40.131Z,13.38
2022-11-02T00:27:42.879Z,13.36
2022-11-02T00:28:45.044Z,13.34
2022-11-02T00:29:46.850Z,13.34
2022-11-02T00:30:48.713Z,13.34
2022-11-02T00:31:51.149Z,13.35
2022-11-02T00:32:52.991Z,13.34
2022-11-02T00:33:54.825Z,13.28
2022-11-02T00:34:56.650Z,13.26
2022-11-02T00:35:58.952Z,13.24
2022-11-02T00:37:00.865Z,13.24
2022-11-02T00:38:03.066Z,13.21
2022-11-02T00:39:05.314Z,13.19
2022-11-02T00:40:07.423Z,13.20
2022-11-02T00:41:09.250Z,13.21
2022-11-02T00:42:11.565Z,13.21
2022-11-02T00:43:13.419Z,13.16
2022-11-02T00:44:15.281Z,13.13
2022-11-02T00:45:17.676Z,13.11
2022-11-02T00:46:20.493Z,13.08
2022-11-02T00:47:22.487Z,13.06
2022-11-02T00:48:24.369Z,13.09
2022-11-02T00:49:26.210Z,13.09
2022-11-02T00:50:27.944Z,13.10
2022-11-02T00:51:29.738Z,13.11
2022-11-02T00:52:31.941Z,13.09
2022-11-02T00:53:33.747Z,13.11
2022-11-02T00:54:35.750Z,13.12
2022-11-02T00:55:37.558Z,13.10
2022-11-02T00:56:39.489Z,13.10
2022-11-02T00:57:41.713Z,13.09
2022-11-02T00:58:43.526Z,13.10
2022-11-02T00:59:45.320Z,13.07
2022-11-02T01:00:48.139Z,13.08
2022-11-02T01:01:50.140Z,13.09
2022-11-02T01:02:53.943Z,13.07
2022-11-02T01:03:58.929Z,13.05
2022-11-02T01:05:00.911Z,13.06
2022-11-02T01:06:12.888Z,13.08
2022-11-02T01:07:14.752Z,13.09
2022-11-02T01:08:16.580Z,13.09
2022-11-02T01:09:18.479Z,13.12
2022-11-02T01:10:20.319Z,13.11
2022-11-02T01:11:24.019Z,13.10
2022-11-02T01:12:25.926Z,13.02
2022-11-02T01:13:27.697Z,13.04
2022-11-02T01:14:29.543Z,13.05
2022-11-02T01:15:31.313Z,13.07
2022-11-02T01:16:33.311Z,13.05
2022-11-02T01:17:35.348Z,13.06
2022-11-02T01:18:37.155Z,13.08
2022-11-02T01:19:39.991Z,13.08
2022-11-02T01:20:41.832Z,13.08
2022-11-02T01:21:43.677Z,13.05
2022-11-02T01:22:45.593Z,13.02
2022-11-02T01:23:47.435Z,13.03
2022-11-02T01:24:50.051Z,13.02
2022-11-02T01:25:52.186Z,13.00
2022-11-02T01:26:53.983Z,12.96
2022-11-02T01:27:55.743Z,12.96
2022-11-02T01:28:57.536Z,12.94
2022-11-02T01:29:59.476Z,12.93
2022-11-02T01:31:01.442Z,12.93
2022-11-02T01:32:03.232Z,12.94
2022-11-02T01:33:08.067Z,12.94
2022-11-02T01:34:11.286Z,12.98
2022-11-02T01:35:13.115Z,12.99
2022-11-02T01:36:16.001Z,13.01
2022-11-02T01:37:17.820Z,13.01
2022-11-02T01:38:19.874Z,13.02
2022-11-02T01:39:21.661Z,12.98
2022-11-02T01:40:23.575Z,12.96
2022-11-02T01:41:25.387Z,12.95
2022-11-02T01:42:28.613Z,12.93
2022-11-02T01:43:31.906Z,12.94
2022-11-02T01:44:35.328Z,12.94
2022-11-02T01:45:37.274Z,12.97
2022-11-02T01:46:43.025Z,12.97
2022-11-02T01:47:47.070Z,12.98
2022-11-02T01:49:12.552Z,12.99
2022-11-02T01:50:26.040Z,13.01
2022-11-02T01:51:33.698Z,13.00
2022-11-02T01:52:36.639Z,12.98
2022-11-02T01:53:42.772Z,12.98
2022-11-02T01:54:56.922Z,12.99
2022-11-02T01:55:59.510Z,12.99
2022-11-02T01:57:04.402Z,12.96
2022-11-02T01:58:08.479Z,12.96
2022-11-02T01:59:15.574Z,12.99
2022-11-02T02:00:18.820Z,12.99
2022-11-02T02:01:21.255Z,13.01
2022-11-02T02:02:24.900Z,13.03
2022-11-02T02:03:27.966Z,12.99
2022-11-02T02:04:29.743Z,12.99
2022-11-02T02:05:34.100Z,12.99
2022-11-02T02:06:35.936Z,12.99
2022-11-02T02:07:40.013Z,12.99
2022-11-02T02:08:43.590Z,13.00
2022-11-02T02:09:48.680Z,13.01
2022-11-02T02:10:56.437Z,13.01
2022-11-02T02:11:58.291Z,13.01
2022-11-02T02:13:00.248Z,13.00
2022-11-02T02:14:08.490Z,12.99
2022-11-02T02:15:11.081Z,13.01
2022-11-02T02:16:17.716Z,13.04
2022-11-02T02:17:19.534Z,13.06
2022-11-02T02:18:25.957Z,13.05
2022-11-02T02:19:40.040Z,13.01
2022-11-02T02:20:44.796Z,12.99
2022-11-02T02:21:58.883Z,13.00
2022-11-02T02:23:19.382Z,12.98
2022-11-02T02:24:27.009Z,12.97
2022-11-02T02:25:47.142Z,12.97
2022-11-02T02:27:01.060Z,12.97
2022-11-02T02:28:19.944Z,12.97
2022-11-02T02:29:28.275Z,12.99
2022-11-02T02:30:33.920Z,12.97
2022-11-02T02:31:43.328Z,12.96
2022-11-02T02:32:56.194Z,12.96
2022-11-02T02:34:14.824Z,12.94
2022-11-02T02:35:26.178Z,12.95
2022-11-02T02:38:02.405Z,12.94
2022-11-02T02:39:09.214Z,12.89
2022-11-02T02:40:18.121Z,12.87
2022-11-02T02:41:25.320Z,12.87
2022-11-02T02:42:48.814Z,12.88
2022-11-02T02:43:52.679Z,12.88
2022-11-02T02:45:20.445Z,12.85
2022-11-02T02:46:34.510Z,12.86
2022-11-02T02:47:39.896Z,12.86
2022-11-02T02:48:44.031Z,12.88
2022-11-02T02:49:49.347Z,12.87
2022-11-02T02:50:52.014Z,12.89
2022-11-02T02:51:56.346Z,12.90
2022-11-02T02:53:00.261Z,12.91
2022-11-02T02:54:17.546Z,12.93
2022-11-02T02:55:23.346Z,12.94
2022-11-02T02:56:26.469Z,12.95
2022-11-02T02:57:30.719Z,12.96
2022-11-02T02:58:37.498Z,12.97
2022-11-02T02:59:43.890Z,12.98
2022-11-02T03:00:46.305Z,12.98
2022-11-02T03:01:48.639Z,12.96
2022-11-02T03:03:03.894Z,12.95
2022-11-02T03:04:05.752Z,12.94
2022-11-02T03:05:27.763Z,12.94
2022-11-02T03:06:35.698Z,12.93
2022-11-02T03:07:37.664Z,12.92
2022-11-02T03:08:41.927Z,12.92
2022-11-02T03:09:46.916Z,12.92
2022-11-02T03:10:51.301Z,12.93
2022-11-02T03:12:01.977Z,12.92
2022-11-02T03:13:15.757Z,12.93
2022-11-02T03:14:26.654Z,12.93
2022-11-02T03:15:37.824Z,12.94
2022-11-02T03:16:42.415Z,12.94
2022-11-02T03:17:53.325Z,12.93
2022-11-02T03:19:11.698Z,12.90
2022-11-02T03:20:13.483Z,12.92
2022-11-02T03:21:18.044Z,12.91
2022-11-02T03:22:38.538Z,12.92
2022-11-02T03:24:00.882Z,12.89
2022-11-02T03:25:08.855Z,12.86
2022-11-02T03:26:27.769Z,12.86
2022-11-02T03:27:35.988Z,12.89
2022-11-02T03:28:54.116Z,12.90
2022-11-02T03:30:05.786Z,12.91
2022-11-02T03:31:17.183Z,12.92
2022-11-02T03:32:18.923Z,12.94
2022-11-02T03:33:26.079Z,12.94
2022-11-02T03:34:48.765Z,12.94
2022-11-02T03:36:02.422Z,12.96
2022-11-02T03:37:11.231Z,12.95
2022-11-02T03:38:20.082Z,12.95
2022-11-02T03:39:25.124Z,12.95
2022-11-02T03:40:30.263Z,12.96
2022-11-02T03:41:33.426Z,12.95
2022-11-02T03:42:35.700Z,12.97
2022-11-02T03:43:39.203Z,12.98
2022-11-02T03:44:42.043Z,12.90
2022-11-02T03:45:47.421Z,12.79
2022-11-02T03:46:51.767Z,12.80
2022-11-02T03:47:57.633Z,12.77
2022-11-02T03:49:03.411Z,12.79
2022-11-02T03:50:10.171Z,12.80
2022-11-02T03:51:14.061Z,12.81
2022-11-02T03:52:18.742Z,12.84
2022-11-02T03:53:23.534Z,12.86
2022-11-02T03:54:30.118Z,12.87
2022-11-02T03:55:34.853Z,12.87
2022-11-02T03:56:38.811Z,12.88
2022-11-02T03:57:48.006Z,12.88
2022-11-02T03:58:49.827Z,12.90
2022-11-02T03:59:51.563Z,12.88
2022-11-02T04:01:02.439Z,12.89
2022-11-02T04:02:04.413Z,12.88
2022-11-02T04:03:08.913Z,12.86
2022-11-02T04:04:11.120Z,12.82
2022-11-02T04:05:13.051Z,12.82
2022-11-02T04:06:15.489Z,12.82
2022-11-02T04:07:20.134Z,12.81
2022-11-02T04:08:29.589Z,12.81
2022-11-02T04:09:31.597Z,12.81
2022-11-02T04:10:33.455Z,12.78
2022-11-02T04:11:54.772Z,12.77
2022-11-02T04:13:14.885Z,12.75
2022-11-02T04:14:35.570Z,12.76
2022-11-02T04:15:37.479Z,12.75
2022-11-02T04:16:39.380Z,12.74
2022-11-02T04:17:59.881Z,12.72
2022-11-02T04:19:20.234Z,12.66
2022-11-02T04:20:21.985Z,12.62
2022-11-02T04:21:23.787Z,12.61
2022-11-02T04:22:44.157Z,12.58
2022-11-02T04:24:04.519Z,12.57
2022-11-02T04:25:16.054Z,12.53
2022-11-02T04:26:17.899Z,12.52
2022-11-02T04:27:21.207Z,12.51
2022-11-02T04:28:23.381Z,12.49
2022-11-02T04:29:25.173Z,12.47
2022-11-02T04:30:26.924Z,12.46
2022-11-02T04:31:28.740Z,12.47
2022-11-02T04:32:49.310Z,12.47
2022-11-02T04:33:51.101Z,12.47
2022-11-02T04:34:52.965Z,12.43
2022-11-02T04:35:54.841Z,12.39
2022-11-02T04:36:56.701Z,12.36
2022-11-02T04:38:17.241Z,12.34
2022-11-02T04:39:19.056Z,12.34
2022-11-02T04:40:20.906Z,12.32
2022-11-02T04:41:42.516Z,12.30
2022-11-02T04:42:47.455Z,12.25
2022-11-02T04:43:49.359Z,12.17
2022-11-02T04:44:51.216Z,12.16
2022-11-02T04:45:52.996Z,12.15
2022-11-02T04:46:54.810Z,12.11
2022-11-02T04:48:01.220Z,12.08
2022-11-02T04:49:03.580Z,12.08
2022-11-02T04:50:05.535Z,12.08
2022-11-02T04:51:07.289Z,12.08
2022-11-02T04:52:10.103Z,12.08
2022-11-02T04:53:12.014Z,12.08
2022-11-02T04:54:13.906Z,12.08
2022-11-02T04:55:15.848Z,12.08
2022-11-02T04:56:17.646Z,12.09
2022-11-02T04:57:19.404Z,12.08
2022-11-02T04:58:21.252Z,12.08
2022-11-02T04:59:23.153Z,12.03
2022-11-02T05:00:25.160Z,12.00
2022-11-02T05:01:28.634Z,11.99
2022-11-02T05:02:30.928Z,11.97
2022-11-02T05:03:32.767Z,11.98
2022-11-02T05:04:34.670Z,11.95
2022-11-02T05:05:36.453Z,11.95
2022-11-02T05:06:38.325Z,11.96
2022-11-02T05:07:40.219Z,11.95
2022-11-02T05:08:42.048Z,11.96
2022-11-02T05:09:43.832Z,11.97
2022-11-02T05:10:45.697Z,11.98
2022-11-02T05:11:49.335Z,11.99
2022-11-02T05:12:56.690Z,11.99
2022-11-02T05:13:58.485Z,11.98
2022-11-02T05:15:00.280Z,11.94
2022-11-02T05:16:02.101Z,11.87
2022-11-02T05:17:03.923Z,11.87
2022-11-02T05:18:06.208Z,11.87
2022-11-02T05:19:10.839Z,11.87
2022-11-02T05:20:13.012Z,11.86
2022-11-02T05:21:14.991Z,11.84
2022-11-02T05:22:16.814Z,11.81
2022-11-02T05:23:19.472Z,11.75
2022-11-02T05:24:21.502Z,11.70
2022-11-02T05:25:23.429Z,11.69
2022-11-02T05:26:25.247Z,11.66
2022-11-02T05:27:27.235Z,11.66
2022-11-02T05:28:29.842Z,11.63
2022-11-02T05:29:31.635Z,11.62
2022-11-02T05:30:33.496Z,11.62
2022-11-02T05:31:35.307Z,11.61
2022-11-02T05:32:37.153Z,11.60
2022-11-02T05:33:38.956Z,11.59
2022-11-02T05:34:40.794Z,11.59
2022-11-02T05:35:42.982Z,11.60
2022-11-02T05:36:44.873Z,11.61
2022-11-02T05:37:47.418Z,11.61
2022-11-02T05:38:52.329Z,11.63
2022-11-02T05:39:54.092Z,11.64
2022-11-02T05:40:57.462Z,11.61
2022-11-02T05:41:59.303Z,11.57
2022-11-02T05:43:01.997Z,11.55
2022-11-02T05:44:04.120Z,11.54
2022-11-02T05:45:06.293Z,11.54
2022-11-02T05:46:08.099Z,11.55
2022-11-02T05:47:09.913Z,11.55
2022-11-02T05:48:11.961Z,11.56
2022-11-02T05:49:13.846Z,11.59
2022-11-02T05:50:15.654Z,11.59
2022-11-02T05:51:17.593Z,11.59
2022-11-02T05:52:19.476Z,11.57
2022-11-02T05:53:21.400Z,11.59
2022-11-02T05:54:23.231Z,11.60
2022-11-02T05:55:25.243Z,11.60
2022-11-02T05:56:27.080Z,11.58
2022-11-02T05:57:28.994Z,11.57
2022-11-02T05:58:32.190Z,11.58
2022-11-02T05:59:33.935Z,11.58
2022-11-02T06:00:35.786Z,11.62
2022-11-02T06:01:37.992Z,11.60
2022-11-02T06:02:40.776Z,11.60
2022-11-02T06:03:42.666Z,11.61
2022-11-02T06:04:44.538Z,11.61
2022-11-02T06:05:46.706Z,11.63
2022-11-02T06:06:48.494Z,11.63
2022-11-02T06:07:50.361Z,11.60
2022-11-02T06:08:52.235Z,11.61
2022-11-02T06:09:54.040Z,11.64
2022-11-02T06:10:55.945Z,11.67
2022-11-02T06:11:57.881Z,11.67
2022-11-02T06:13:01.035Z,11.67
2022-11-02T06:14:04.116Z,11.68
2022-11-02T06:15:06.077Z,11.67
2022-11-02T06:16:11.827Z,11.59
2022-11-02T06:17:13.642Z,11.55
2022-11-02T06:18:15.487Z,11.55
2022-11-02T06:19:17.333Z,11.54
2022-11-02T06:20:19.799Z,11.54
2022-11-02T06:21:21.621Z,11.56
2022-11-02T06:22:23.498Z,11.57
2022-11-02T06:23:27.907Z,11.59
2022-11-02T06:24:29.807Z,11.62
2022-11-02T06:25:31.689Z,11.63
2022-11-02T06:26:33.461Z,11.65
2022-11-02T06:27:35.638Z,11.64
2022-11-02T06:28:37.563Z,11.63
2022-11-02T06:29:39.483Z,11.63
2022-11-02T06:30:43.232Z,11.64
2022-11-02T06:31:45.033Z,11.64
2022-11-02T06:32:47.911Z,11.64
2022-11-02T06:33:49.667Z,11.64
2022-11-02T06:34:51.619Z,11.66
2022-11-02T06:35:54.367Z,11.68
2022-11-02T06:36:56.175Z,11.67
2022-11-02T06:37:57.939Z,11.66
2022-11-02T06:38:59.802Z,11.66
2022-11-02T06:40:02.298Z,11.62
2022-11-02T06:41:06.849Z,11.61
2022-11-02T06:42:08.890Z,11.63
2022-11-02T06:43:16.677Z,11.65
2022-11-02T06:44:19.543Z,11.66
2022-11-02T06:45:21.430Z,11.66
2022-11-02T06:46:23.254Z,11.66
2022-11-02T06:47:25.099Z,11.60
2022-11-02T06:48:31.512Z,11.60
2022-11-02T06:49:35.171Z,11.63
2022-11-02T06:50:37.080Z,11.68
2022-11-02T06:51:39.037Z,11.69
2022-11-02T06:52:45.048Z,11.71
2022-11-02T06:53:46.953Z,11.72
2022-11-02T06:54:48.758Z,11.74
2022-11-02T06:55:54.568Z,11.77
2022-11-02T06:56:56.382Z,11.80
2022-11-02T06:57:58.228Z,11.84
2022-11-02T06:59:00.019Z,11.85
2022-11-02T07:00:05.325Z,11.88
2022-11-02T07:01:08.737Z,11.91
2022-11-02T07:02:10.844Z,11.92
2022-11-02T07:03:12.698Z,11.92
2022-11-02T07:04:14.556Z,11.92
2022-11-02T07:05:16.460Z,11.92
2022-11-02T07:06:18.388Z,11.91
2022-11-02T07:07:20.186Z,11.85
2022-11-02T07:08:22.566Z,11.83
2022-11-02T07:09:24.407Z,11.86
2022-11-02T07:10:27.087Z,11.90
2022-11-02T07:11:28.990Z,11.92
2022-11-02T07:12:32.826Z,11.92
2022-11-02T07:13:34.687Z,11.92
2022-11-02T07:14:36.444Z,11.95
2022-11-02T07:15:38.257Z,11.97
2022-11-02T07:16:40.147Z,12.00
2022-11-02T07:17:41.994Z,12.03
2022-11-02T07:18:43.845Z,12.00
2022-11-02T07:19:45.723Z,12.04
2022-11-02T07:20:47.608Z,12.07
2022-11-02T07:21:49.459Z,12.07
2022-11-02T07:22:55.542Z,12.04
2022-11-02T07:23:57.359Z,12.04
2022-11-02T07:24:59.202Z,12.09
2022-11-02T07:26:05.233Z,12.13
2022-11-02T07:27:07.230Z,12.16
2022-11-02T07:28:09.043Z,12.16
2022-11-02T07:29:10.859Z,12.15
2022-11-02T07:30:12.746Z,12.17
2022-11-02T07:31:14.638Z,12.21
2022-11-02T07:32:16.529Z,12.23
2022-11-02T07:33:18.288Z,12.22
2022-11-02T07:34:20.045Z,12.25
2022-11-02T07:35:22.235Z,12.26
2022-11-02T07:36:24.132Z,12.28
2022-11-02T07:37:25.976Z,12.31
2022-11-02T07:38:28.059Z,12.31
2022-11-02T07:39:29.875Z,12.32
2022-11-02T07:40:32.426Z,12.33
2022-11-02T07:41:34.574Z,12.35
2022-11-02T07:42:36.828Z,12.36
2022-11-02T07:43:41.476Z,12.38
2022-11-02T07:44:45.991Z,12.40
2022-11-02T07:45:47.843Z,12.40
2022-11-02T07:46:49.669Z,12.39
2022-11-02T07:47:52.677Z,12.43
2022-11-02T07:48:54.550Z,12.44
2022-11-02T07:49:59.344Z,12.46
2022-11-02T07:51:01.192Z,12.46
2022-11-02T07:52:03.025Z,12.46
2022-11-02T07:53:04.989Z,12.45
2022-11-02T07:54:07.382Z,12.46
2022-11-02T07:55:09.304Z,12.45
2022-11-02T07:56:11.695Z,12.51
2022-11-02T07:57:13.534Z,12.57
2022-11-02T07:58:15.397Z,12.60
2022-11-02T07:59:17.266Z,12.63
2022-11-02T08:00:19.170Z,12.64
2022-11-02T08:01:21.187Z,12.65
2022-11-02T08:02:23.123Z,12.68
2022-11-02T08:03:25.205Z,12.71
2022-11-02T08:04:27.036Z,12.72
2022-11-02T08:05:29.866Z,12.77
2022-11-02T08:06:31.817Z,12.84
2022-11-02T08:07:33.622Z,12.94
2022-11-02T08:08:37.024Z,13.01
2022-11-02T08:09:39.198Z,13.08
2022-11-02T08:10:41.407Z,13.13
2022-11-02T08:11:43.281Z,13.17
2022-11-02T08:12:45.115Z,13.18
2022-11-02T08:13:47.013Z,13.18
2022-11-02T08:14:49.328Z,13.18
2022-11-02T08:15:51.574Z,13.18
2022-11-02T08:16:53.412Z,13.18
2022-11-02T08:18:02.985Z,13.16
2022-11-02T08:19:05.343Z,13.15
2022-11-02T08:20:07.824Z,13.14
2022-11-02T08:21:09.760Z,13.16
2022-11-02T08:22:11.623Z,13.19
2022-11-02T08:23:14.116Z,13.22
2022-11-02T08:24:15.896Z,13.25
2022-11-02T08:25:17.774Z,13.28
2022-11-02T08:26:19.525Z,13.32
2022-11-02T08:27:21.283Z,13.37
2022-11-02T08:28:24.414Z,13.40
2022-11-02T08:29:26.681Z,13.45
2022-11-02T08:30:29.625Z,13.47
2022-11-02T08:31:31.420Z,13.46
2022-11-02T08:32:33.227Z,13.43
2022-11-02T08:33:35.152Z,13.47
2022-11-02T08:34:36.995Z,13.48
2022-11-02T08:35:39.447Z,13.50
2022-11-02T08:36:41.244Z,13.54
2022-11-02T08:37:43.359Z,13.57
2022-11-02T08:38:45.685Z,13.57
2022-11-02T08:39:48.612Z,13.57
2022-11-02T08:40:50.344Z,13.57
2022-11-02T08:41:52.290Z,13.59
2022-11-02T08:42:58.068Z,13.58
2022-11-02T08:43:59.845Z,13.62
2022-11-02T08:45:01.807Z,13.59
2022-11-02T08:46:19.663Z,13.56
2022-11-02T08:47:22.058Z,13.61
2022-11-02T08:48:23.957Z,13.67
2022-11-02T08:49:25.801Z,13.71
2022-11-02T08:50:29.662Z,13.74
2022-11-02T08:51:31.542Z,13.74
2022-11-02T08:52:40.730Z,13.76
2022-11-02T08:53:47.085Z,13.82
2022-11-02T08:54:52.160Z,13.88
2022-11-02T08:55:55.727Z,13.90
2022-11-02T08:56:57.505Z,13.91
2022-11-02T08:58:00.101Z,13.91
2022-11-02T08:59:01.910Z,13.91
2022-11-02T09:00:03.742Z,13.94
2022-11-02T09:01:05.838Z,13.90
2022-11-02T09:02:09.272Z,13.87
2022-11-02T09:03:16.067Z,13.82
2022-11-02T09:04:18.030Z,13.83
2022-11-02T09:05:19.761Z,13.88
2022-11-02T09:06:21.645Z,13.89
2022-11-02T09:07:23.473Z,13.91
2022-11-02T09:08:25.997Z,13.93
2022-11-02T09:09:27.820Z,13.95
2022-11-02T09:10:30.828Z,13.96
2022-11-02T09:11:32.715Z,13.98
2022-11-02T09:12:34.551Z,14.01
2022-11-02T09:13:37.942Z,14.02
2022-11-02T09:14:39.902Z,14.03
2022-11-02T09:15:42.340Z,14.05
2022-11-02T09:16:44.188Z,14.06
2022-11-02T09:17:49.786Z,14.08
2022-11-02T09:18:52.733Z,14.10
2022-11-02T09:19:54.505Z,14.11
2022-11-02T09:20:56.870Z,14.12
2022-11-02T09:22:00.164Z,14.11
2022-11-02T09:23:04.376Z,14.09
2022-11-02T09:24:06.421Z,14.10
2022-11-02T09:25:08.608Z,14.12
2022-11-02T09:26:10.393Z,14.12
2022-11-02T09:27:12.265Z,14.12
2022-11-02T09:28:15.767Z,14.13
2022-11-02T09:29:18.860Z,14.17
2022-11-02T09:30:21.121Z,14.21
2022-11-02T09:31:23.091Z,14.24
2022-11-02T09:32:24.879Z,14.29
2022-11-02T09:33:26.914Z,14.32
2022-11-02T09:34:28.855Z,14.35
2022-11-02T09:35:35.536Z,14.39
2022-11-02T09:36:37.293Z,14.42
2022-11-02T09:37:39.107Z,14.48
2022-11-02T09:38:40.895Z,14.49
2022-11-02T09:39:42.775Z,14.52
2022-11-02T09:41:01.915Z,14.56
2022-11-02T09:42:27.102Z,14.59
2022-11-02T09:43:37.537Z,14.62
2022-11-02T09:44:48.192Z,14.64
2022-11-02T09:45:58.592Z,14.65
2022-11-02T09:47:55.711Z,14.69
2022-11-02T09:48:30.571Z,14.72
2022-11-02T09:49:33.137Z,14.77
2022-11-02T09:50:41.699Z,14.77
2022-11-02T09:51:49.078Z,14.81
2022-11-02T09:52:57.458Z,14.82
2022-11-02T09:54:05.359Z,14.85
2022-11-02T09:55:13.039Z,14.99
2022-11-02T09:56:17.550Z,15.07
2022-11-02T09:57:30.526Z,15.13
2022-11-02T09:58:41.070Z,15.14
2022-11-02T09:59:43.030Z,15.14
2022-11-02T10:00:48.488Z,15.16
2022-11-02T10:02:09.102Z,15.19
2022-11-02T10:03:27.594Z,15.30
2022-11-02T10:04:48.062Z,15.33
2022-11-02T10:05:55.794Z,15.36
2022-11-02T10:07:16.211Z,15.39
2022-11-02T10:08:25.138Z,15.44
2022-11-02T10:09:35.883Z,15.50
2022-11-02T10:10:39.232Z,15.53
2022-11-02T10:11:41.089Z,15.55
2022-11-02T10:12:43.739Z,15.56
2022-11-02T10:13:56.864Z,15.58
2022-11-02T10:14:59.081Z,15.61
2022-11-02T10:16:04.333Z,15.62
2022-11-02T10:17:32.523Z,15.74
2022-11-02T10:18:37.344Z,15.84
2022-11-02T10:19:41.299Z,15.90
2022-11-02T10:20:47.228Z,15.95
2022-11-02T10:21:52.347Z,15.98
2022-11-02T10:22:57.598Z,15.97
2022-11-02T10:24:02.453Z,15.96
2022-11-02T10:25:05.899Z,15.99
2022-11-02T10:26:13.078Z,16.03
2022-11-02T10:27:26.674Z,16.03
2022-11-02T10:28:36.623Z,16.04
2022-11-02T10:29:45.528Z,16.05
2022-11-02T10:30:47.372Z,16.06
2022-11-02T10:31:50.999Z,16.05
2022-11-02T10:32:55.246Z,16.05
2022-11-02T10:33:58.391Z,16.06
2022-11-02T10:35:25.489Z,16.06
2022-11-02T10:36:26.584Z,16.13
2022-11-02T10:37:43.769Z,16.14
2022-11-02T10:39:00.962Z,16.15
2022-11-02T10:40:08.962Z,16.14
2022-11-02T10:41:29.561Z,16.13
2022-11-02T10:42:50.395Z,16.12
2022-11-02T10:43:58.165Z,16.14
2022-11-02T10:45:15.308Z,16.16
2022-11-02T10:46:17.083Z,16.19
2022-11-02T10:47:30.529Z,16.20
2022-11-02T10:48:42.734Z,16.22
2022-11-02T10:49:44.533Z,16.22
2022-11-02T10:50:46.313Z,16.23
2022-11-02T10:51:48.113Z,16.24
2022-11-02T10:52:49.847Z,16.25
2022-11-02T10:53:52.759Z,16.27
2022-11-02T10:54:54.938Z,16.27
2022-11-02T10:55:59.573Z,16.28
2022-11-02T10:57:09.645Z,16.30
2022-11-02T10:58:16.043Z,16.31
2022-11-02T10:59:24.127Z,16.32
2022-11-02T11:00:28.090Z,16.34
2022-11-02T11:01:32.344Z,16.34
2022-11-02T11:02:34.200Z,16.36
2022-11-02T11:03:53.037Z,16.37
2022-11-02T11:05:00.022Z,16.37
2022-11-02T11:06:04.954Z,16.37
2022-11-02T11:07:08.268Z,16.37
2022-11-02T11:08:28.315Z,16.36
2022-11-02T11:09:32.958Z,16.34
2022-11-02T11:10:38.302Z,16.34
2022-11-02T11:11:40.154Z,16.33
2022-11-02T11:12:43.414Z,16.32
2022-11-02T11:15:48.179Z,16.32
2022-11-02T11:19:52.550Z,16.29
2022-11-02T11:20:56.244Z,16.30
2022-11-02T11:21:58.147Z,16.29
2022-11-02T11:23:15.901Z,16.29
2022-11-02T11:24:23.671Z,16.28
2022-11-02T11:25:28.272Z,16.30
2022-11-02T11:26:31.628Z,16.31
2022-11-02T11:27:44.256Z,16.32
2022-11-02T11:28:56.156Z,16.35
2022-11-02T11:29:59.189Z,16.37
2022-11-02T11:31:09.058Z,16.40
2022-11-02T11:32:19.450Z,16.43
2022-11-02T11:33:21.915Z,16.45
2022-11-02T11:34:26.097Z,16.48
2022-11-02T11:35:35.532Z,16.51
2022-11-02T11:36:37.357Z,16.53
2022-11-02T11:37:47.744Z,16.55
2022-11-02T11:38:50.810Z,16.57
2022-11-02T11:40:00.666Z,16.59
2022-11-02T11:41:02.832Z,16.64
2022-11-02T11:42:05.782Z,16.67
2022-11-02T11:43:13.637Z,16.71
2022-11-02T11:44:16.254Z,16.74
2022-11-02T11:45:20.951Z,16.76
2022-11-02T11:46:23.317Z,16.74
2022-11-02T11:47:45.383Z,16.76
2022-11-02T11:48:49.698Z,16.83
2022-11-02T11:50:09.194Z,16.85
2022-11-02T11:51:25.554Z,16.82
2022-11-02T11:52:32.129Z,16.80
2022-11-02T11:53:35.760Z,16.77
2022-11-02T11:54:38.978Z,16.82
2022-11-02T11:55:51.582Z,16.92
2022-11-02T11:56:55.214Z,17.04
2022-11-02T11:58:15.562Z,17.16
2022-11-02T11:59:21.862Z,17.24
2022-11-02T12:00:29.973Z,17.30
2022-11-02T12:01:41.300Z,17.32
2022-11-02T12:02:44.895Z,17.33
2022-11-02T12:03:52.002Z,17.35
2022-11-02T12:05:01.750Z,17.36
2022-11-02T12:06:22.138Z,17.30
2022-11-02T12:07:26.929Z,17.25
2022-11-02T12:08:45.661Z,17.22
2022-11-02T12:09:57.157Z,17.15
2022-11-02T12:11:18.771Z,17.10
2022-11-02T12:12:41.244Z,17.07
2022-11-02T12:13:55.979Z,17.04
2022-11-02T12:15:16.437Z,17.00
2022-11-02T12:16:30.277Z,16.98
2022-11-02T12:17:37.851Z,16.97
2022-11-02T12:19:00.474Z,16.96
2022-11-02T12:20:20.516Z,16.94
2022-11-02T12:21:22.387Z,16.95
2022-11-02T12:22:30.501Z,16.93
2022-11-02T12:23:32.251Z,16.94
2022-11-02T12:24:43.662Z,17.02
2022-11-02T12:25:54.396Z,17.13
2022-11-02T12:27:08.294Z,17.20
2022-11-02T12:28:28.896Z,17.24
2022-11-02T12:29:37.051Z,17.17
2022-11-02T12:30:50.439Z,17.11
2022-11-02T12:32:01.510Z,17.10
2022-11-02T12:33:17.985Z,17.06
2022-11-02T12:34:38.566Z,17.04
2022-11-02T12:35:49.309Z,16.99
2022-11-02T12:37:38.630Z,16.98
2022-11-02T12:38:40.091Z,16.98
2022-11-02T12:39:54.745Z,16.97
2022-11-02T12:40:59.354Z,16.96
2022-11-02T12:42:05.979Z,16.96
2022-11-02T12:43:07.934Z,16.95
2022-11-02T12:44:17.938Z,16.93
2022-11-02T12:45:32.032Z,16.93
2022-11-02T12:46:42.279Z,16.90
2022-11-02T12:48:05.594Z,16.89
2022-11-02T12:49:17.201Z,16.87
2022-11-02T12:50:24.138Z,16.86
2022-11-02T12:51:30.954Z,16.84
2022-11-02T12:52:42.848Z,16.85
2022-11-02T12:54:01.827Z,16.84
2022-11-02T12:55:05.327Z,16.81
2022-11-02T12:56:09.202Z,16.80
2022-11-02T12:57:13.510Z,16.79
2022-11-02T12:58:21.919Z,16.78
2022-11-02T12:59:28.891Z,16.77
2022-11-02T13:00:32.445Z,16.75
2022-11-02T13:01:43.330Z,16.73
2022-11-02T13:02:54.473Z,16.73
2022-11-02T13:03:59.239Z,16.72
2022-11-02T13:05:04.609Z,16.72
2022-11-02T13:06:09.138Z,16.73
2022-11-02T13:07:15.314Z,16.74
2022-11-02T13:08:20.260Z,16.72
2022-11-02T13:09:26.498Z,16.73
2022-11-02T13:10:36.423Z,16.75
2022-11-02T13:11:41.427Z,16.75
2022-11-02T13:12:44.242Z,16.76
2022-11-02T13:13:49.007Z,16.77
2022-11-02T13:14:52.531Z,16.82
2022-11-02T13:15:55.207Z,16.82
2022-11-02T13:17:03.599Z,16.79
2022-11-02T13:18:30.443Z,16.78
2022-11-02T13:19:39.187Z,16.73
2022-11-02T13:20:51.192Z,16.70
2022-11-02T13:21:56.675Z,16.69
2022-11-02T13:23:03.537Z,16.67
2022-11-02T13:24:07.001Z,16.64
2022-11-02T13:25:20.876Z,16.63
2022-11-02T13:26:30.211Z,16.61
2022-11-02T13:27:36.269Z,16.60
2022-11-02T13:28:44.129Z,16.59
2022-11-02T13:29:47.922Z,16.60
2022-11-02T13:30:49.864Z,16.60
2022-11-02T13:32:11.446Z,16.59
2022-11-02T13:33:23.891Z,16.58
2022-11-02T13:34:33.671Z,16.57
2022-11-02T13:35:36.523Z,16.55
2022-11-02T13:36:39.478Z,16.51
2022-11-02T13:37:44.232Z,16.49
2022-11-02T13:39:00.584Z,16.47
2022-11-02T13:40:08.732Z,16.48
2022-11-02T13:41:10.537Z,16.49
2022-11-02T13:42:18.571Z,16.49
2022-11-02T13:43:23.449Z,16.47
2022-11-02T13:44:28.451Z,16.46
2022-11-02T13:46:41.822Z,16.42
2022-11-02T13:47:49.839Z,16.39
2022-11-02T13:48:58.647Z,16.39
2022-11-02T13:50:02.915Z,16.40
2022-11-02T13:51:07.274Z,16.38
2022-11-02T13:52:15.242Z,16.35
2022-11-02T13:53:43.531Z,16.34
2022-11-02T13:54:51.369Z,16.34
2022-11-02T13:55:59.495Z,16.33
2022-11-02T13:57:03.168Z,16.33
2022-11-02T13:58:06.021Z,16.31
2022-11-02T13:59:09.365Z,16.31
2022-11-02T14:00:23.415Z,16.31
2022-11-02T14:01:26.232Z,16.30
2022-11-02T14:02:30.923Z,16.31
2022-11-02T14:03:48.355Z,16.31
2022-11-02T14:04:50.639Z,16.31
2022-11-02T14:05:59.734Z,16.31
2022-11-02T14:07:04.239Z,16.30
2022-11-02T14:08:09.306Z,16.30
2022-11-02T14:09:20.855Z,16.31
2022-11-02T14:10:22.689Z,16.30
2022-11-02T14:11:26.485Z,16.30